Time;durP1;ratioP1;P1;durP2;ratioP2;P2;SDS_P1;SDS_P2;PMS_P1;PMS_P2;Temp;Humidity;BMP_temperature;BMP_pressure;BME280_temperature;BME280_humidity;BME280_pressure;Samples;Min_cycle;Max_cycle;Signal;HPM_P1;HPM_P2
2024/01/24 00:00:27;;;;;;;27.45;4.05;;;;;;;9.36;100.00;100505.03;5081602;28;20059;-76
2024/01/24 00:02:53;;;;;;;20.10;5.35;;;;;;;9.30;100.00;100511.13;5081599;28;20062;-76
2024/01/24 00:05:19;;;;;;;23.10;4.85;;;;;;;9.15;100.00;100516.34;5081601;28;20024;-76
2024/01/24 00:07:44;;;;;;;25.30;5.47;;;;;;;9.00;100.00;100534.19;5081440;28;20352;-77
2024/01/24 00:10:11;;;;;;;18.98;5.03;;;;;;;8.88;100.00;100543.59;5098075;28;20039;-76
2024/01/24 00:12:37;;;;;;;18.58;4.85;;;;;;;8.89;100.00;100564.00;5098231;28;20118;-76
2024/01/24 00:15:03;;;;;;;24.40;4.82;;;;;;;8.92;100.00;100559.19;5097713;28;20047;-76
2024/01/24 00:17:29;;;;;;;16.50;4.13;;;;;;;8.88;100.00;100563.19;5080709;28;20039;-76
2024/01/24 00:19:55;;;;;;;10.40;4.63;;;;;;;8.90;100.00;100566.53;5114354;28;20036;-77
2024/01/24 00:22:20;;;;;;;21.48;5.07;;;;;;;8.93;100.00;100589.50;5098022;28;20027;-76
2024/01/24 00:24:46;;;;;;;18.83;3.75;;;;;;;8.93;100.00;100608.28;5081624;28;20088;-76
2024/01/24 00:27:12;;;;;;;19.92;4.38;;;;;;;8.97;100.00;100647.13;5081117;28;20067;-76
2024/01/24 00:29:38;;;;;;;24.92;4.88;;;;;;;8.77;100.00;100658.19;5080953;28;20040;-76
2024/01/24 00:32:04;;;;;;;21.27;5.22;;;;;;;8.54;100.00;100663.34;5097830;28;20031;-76
2024/01/24 00:34:29;;;;;;;29.08;5.63;;;;;;;8.27;100.00;100669.81;5081193;28;20032;-76
2024/01/24 00:36:55;;;;;;;14.25;4.53;;;;;;;7.97;100.00;100648.97;5080984;28;20133;-77
2024/01/24 00:39:21;;;;;;;20.20;4.07;;;;;;;7.85;100.00;100662.63;5080572;28;20036;-76
2024/01/24 00:41:47;;;;;;;19.27;4.40;;;;;;;7.86;100.00;100669.66;5097235;28;20031;-76
2024/01/24 00:44:13;;;;;;;21.58;5.70;;;;;;;7.94;100.00;100663.50;5080849;28;20058;-76
2024/01/24 00:46:40;;;;;;;18.92;5.45;;;;;;;8.02;100.00;100693.00;5097624;28;20467;-76
2024/01/24 00:49:10;;;;;;;22.27;4.80;;;;;;;8.26;100.00;100657.41;5080564;28;20220;-76
2024/01/24 00:51:36;;;;;;;20.67;5.32;;;;;;;8.45;100.00;100660.84;5114035;28;20024;-76
2024/01/24 00:54:01;;;;;;;18.33;3.80;;;;;;;8.50;100.00;100651.31;5113975;28;20030;-76
2024/01/24 00:56:27;;;;;;;20.77;5.57;;;;;;;8.55;100.00;100658.88;5098026;28;20040;-76
2024/01/24 00:58:53;;;;;;;28.73;6.03;;;;;;;8.70;100.00;100669.75;5097004;28;20440;-77
2024/01/24 01:01:19;;;;;;;17.92;5.65;;;;;;;8.72;100.00;100686.53;5097260;28;20031;-76
2024/01/24 01:03:45;;;;;;;15.63;4.72;;;;;;;8.14;100.00;100704.25;5114183;28;20482;-76
2024/01/24 01:06:11;;;;;;;26.00;5.63;;;;;;;7.80;100.00;100714.94;5080256;28;20066;-76
2024/01/24 01:08:37;;;;;;;21.15;4.63;;;;;;;7.57;100.00;100731.56;5079902;28;20058;-76
2024/01/24 01:11:04;;;;;;;15.68;4.40;;;;;;;7.43;100.00;100732.09;5097089;28;20070;-76
2024/01/24 01:13:33;;;;;;;24.65;3.83;;;;;;;7.34;100.00;100741.09;5080394;28;20031;-76
2024/01/24 01:15:58;;;;;;;29.33;7.80;;;;;;;7.37;100.00;100749.63;5097206;28;20027;-76
2024/01/24 01:18:24;;;;;;;22.55;5.00;;;;;;;7.55;100.00;100732.72;5079760;28;20031;-75
2024/01/24 01:20:50;;;;;;;13.00;3.40;;;;;;;7.60;100.00;100749.97;5079832;28;20425;-76
2024/01/24 01:23:16;;;;;;;16.50;4.63;;;;;;;7.63;100.00;100751.50;5080528;28;20024;-75
2024/01/24 01:25:41;;;;;;;13.38;3.58;;;;;;;7.70;100.00;100766.78;5096653;28;20054;-76
2024/01/24 01:28:07;;;;;;;13.52;2.78;;;;;;;7.77;100.00;100782.19;5079860;28;20050;-76
2024/01/24 01:30:32;;;;;;;18.48;3.80;;;;;;;7.85;100.00;100782.25;5079090;28;20043;-76
2024/01/24 01:32:58;;;;;;;12.68;3.47;;;;;;;7.91;100.00;100795.84;5079870;28;20031;-76
2024/01/24 01:35:24;;;;;;;21.48;4.82;;;;;;;7.96;100.00;100791.84;5096548;28;20115;-76
2024/01/24 01:37:50;;;;;;;18.85;5.40;;;;;;;8.06;100.00;100796.09;5079471;28;20035;-76
2024/01/24 01:40:15;;;;;;;18.10;5.32;;;;;;;8.20;100.00;100813.41;5079790;28;20085;-76
2024/01/24 01:42:44;;;;;;;17.73;4.70;;;;;;;8.24;100.00;100806.75;5079714;28;20455;-76
2024/01/24 01:45:11;;;;;;;15.35;4.28;;;;;;;8.13;100.00;100815.06;5079636;28;20071;-76
2024/01/24 01:47:37;;;;;;;19.27;5.05;;;;;;;7.90;100.00;100837.00;5112905;28;20034;-76
2024/01/24 01:50:16;;;;;;;13.20;4.13;;;;;;;7.75;100.00;100830.50;5096464;28;20486;-76
2024/01/24 01:52:42;;;;;;;15.65;4.22;;;;;;;7.71;100.00;100839.88;5096810;28;20043;-76
2024/01/24 01:55:08;;;;;;;8.77;2.75;;;;;;;7.70;100.00;100846.22;5079455;28;20035;-76
2024/01/24 01:57:34;;;;;;;16.75;4.03;;;;;;;7.69;100.00;100864.09;5079424;28;20031;-76
2024/01/24 02:00:00;;;;;;;11.55;3.83;;;;;;;7.83;100.00;100852.03;5079798;28;20085;-76
2024/01/24 02:02:26;;;;;;;13.75;3.20;;;;;;;7.96;100.00;100856.09;5079377;28;20027;-77
2024/01/24 02:04:52;;;;;;;14.73;3.38;;;;;;;7.97;100.00;100858.63;5096109;28;20046;-76
2024/01/24 02:07:17;;;;;;;13.23;2.90;;;;;;;7.97;100.00;100865.84;5079057;28;20433;-76
2024/01/24 02:09:44;;;;;;;16.10;4.38;;;;;;;7.85;100.00;100855.34;5079417;28;20039;-76
2024/01/24 02:12:09;;;;;;;13.63;4.28;;;;;;;7.84;100.00;100869.75;5079227;28;20502;-76
2024/01/24 02:14:36;;;;;;;16.80;4.03;;;;;;;7.90;100.00;100892.38;5079616;28;20063;-75
2024/01/24 02:17:01;;;;;;;15.93;4.75;;;;;;;7.96;100.00;100889.06;5095989;28;20043;-76
2024/01/24 02:19:27;;;;;;;13.43;4.10;;;;;;;7.96;100.00;100896.28;5078976;28;20023;-76
2024/01/24 02:21:53;;;;;;;18.40;5.63;;;;;;;7.88;100.00;100913.94;5096051;28;20150;-76
2024/01/24 02:24:18;;;;;;;16.17;3.85;;;;;;;7.92;100.00;100923.34;5079136;28;20035;-77
2024/01/24 02:26:44;;;;;;;11.32;3.20;;;;;;;8.03;100.00;100929.47;5112852;28;20032;-76
2024/01/24 02:29:11;;;;;;;13.23;3.28;;;;;;;8.01;100.00;100923.41;5079343;28;20059;-76
2024/01/24 02:31:38;;;;;;;24.83;4.57;;;;;;;7.91;100.00;100934.22;5112871;28;20105;-76
2024/01/24 02:34:03;;;;;;;19.27;3.05;;;;;;;7.88;100.00;100955.94;5078944;28;20050;-76
2024/01/24 02:36:29;;;;;;;18.98;4.85;;;;;;;7.91;100.00;100932.41;5079183;28;20031;-76
2024/01/24 02:38:55;;;;;;;10.55;3.42;;;;;;;7.87;100.00;100939.03;5079130;28;20414;-76
2024/01/24 02:41:21;;;;;;;8.15;3.47;;;;;;;7.77;100.00;100940.94;5081030;28;20024;-76
2024/01/24 02:43:46;;;;;;;15.32;3.90;;;;;;;7.74;100.00;100954.66;5099938;28;20039;-76
2024/01/24 02:46:12;;;;;;;27.05;4.70;;;;;;;7.85;100.00;100941.03;5082785;28;20051;-76
2024/01/24 02:48:38;;;;;;;12.52;3.28;;;;;;;7.97;100.00;100976.47;5082851;28;20425;-76
2024/01/24 02:51:04;;;;;;;11.68;4.00;;;;;;;7.93;100.00;100978.56;5083038;28;20041;-76
2024/01/24 02:53:29;;;;;;;14.20;3.88;;;;;;;7.88;100.00;100996.09;5082873;28;20475;-76
2024/01/24 02:55:55;;;;;;;10.65;2.92;;;;;;;7.86;100.00;101006.97;5082782;28;20036;-76
2024/01/24 02:58:21;;;;;;;24.10;4.47;;;;;;;7.79;100.00;100995.19;5082662;28;20081;-76
2024/01/24 03:00:46;;;;;;;19.40;4.32;;;;;;;7.71;100.00;101019.19;5082877;28;20078;-76
2024/01/24 03:03:12;;;;;;;9.88;3.40;;;;;;;7.64;100.00;101013.59;5083658;28;20042;-77
2024/01/24 03:05:38;;;;;;;18.23;2.88;;;;;;;7.58;100.00;101016.03;5082908;28;20551;-76
2024/01/24 03:08:04;;;;;;;24.48;3.97;;;;;;;7.46;100.00;101037.66;5082612;28;20428;-76
2024/01/24 03:10:30;;;;;;;12.48;2.50;;;;;;;7.32;100.00;101042.63;5099040;28;20038;-76
2024/01/24 03:12:55;;;;;;;14.60;3.67;;;;;;;7.47;100.00;101063.41;5082610;28;20031;-76
2024/01/24 03:15:21;;;;;;;8.27;2.35;;;;;;;7.72;100.00;101071.72;5082546;28;20459;-76
2024/01/24 03:17:47;;;;;;;13.20;3.47;;;;;;;8.01;100.00;101086.78;5098786;28;20089;-76
2024/01/24 03:20:14;;;;;;;13.45;3.55;;;;;;;8.18;100.00;101094.00;5082082;28;20027;-76
2024/01/24 03:22:40;;;;;;;10.68;2.55;;;;;;;8.15;100.00;101095.13;5115872;28;20443;-76
2024/01/24 03:25:06;;;;;;;6.07;1.77;;;;;;;7.91;100.00;101103.75;5082167;28;20051;-76
2024/01/24 03:27:32;;;;;;;14.80;2.60;;;;;;;7.71;100.00;101105.69;5099130;28;20035;-76
2024/01/24 03:29:58;;;;;;;10.35;2.03;;;;;;;7.69;100.00;101117.53;5082207;28;20071;-77
2024/01/24 03:32:24;;;;;;;11.75;2.60;;;;;;;7.69;100.00;101125.56;5099259;28;20126;-76
2024/01/24 03:34:53;;;;;;;10.73;2.20;;;;;;;7.71;100.00;101140.47;5082085;28;20031;-76
2024/01/24 03:37:19;;;;;;;8.40;1.70;;;;;;;7.69;100.00;101146.97;5082119;28;20027;-76
2024/01/24 03:39:45;;;;;;;9.93;1.95;;;;;;;7.54;100.00;101145.75;5081745;28;20118;-76
2024/01/24 03:42:10;;;;;;;9.63;2.42;;;;;;;7.38;100.00;101146.38;5082150;28;20057;-76
2024/01/24 03:44:36;;;;;;;18.13;2.75;;;;;;;7.29;100.00;101145.41;5081929;28;20455;-76
2024/01/24 03:47:02;;;;;;;10.93;2.45;;;;;;;7.09;100.00;101165.16;5082808;28;20036;-76
2024/01/24 03:49:27;;;;;;;15.75;2.80;;;;;;;7.04;100.00;101168.28;5082153;28;20098;-75
2024/01/24 03:51:54;;;;;;;11.52;3.30;;;;;;;6.99;100.00;101168.72;5081506;28;20036;-76
2024/01/24 03:54:19;;;;;;;9.32;2.83;;;;;;;7.00;100.00;101175.72;5098150;28;20046;-76
2024/01/24 03:56:45;;;;;;;11.98;3.58;;;;;;;7.03;100.00;101191.47;5081639;28;20131;-76
2024/01/24 03:59:10;;;;;;;15.80;3.65;;;;;;;7.04;100.00;101177.16;5115083;28;20035;-76
2024/01/24 04:01:36;;;;;;;15.00;3.00;;;;;;;6.99;100.00;101184.75;5081770;28;20054;-76
2024/01/24 04:04:02;;;;;;;7.13;2.45;;;;;;;6.97;100.00;101181.38;5081579;28;20471;-76
2024/01/24 04:06:28;;;;;;;16.92;4.65;;;;;;;6.98;100.00;101158.13;5098475;28;20031;-76
2024/01/24 04:08:53;;;;;;;15.27;2.72;;;;;;;6.92;100.00;101188.13;5081664;28;20039;-76
2024/01/24 04:11:19;;;;;;;25.10;3.50;;;;;;;6.88;100.00;101195.59;5098026;28;20027;-76
2024/01/24 04:13:51;;;;;;;21.55;4.10;;;;;;;6.77;100.00;101201.06;5081459;28;20032;-76
2024/01/24 04:16:17;;;;;;;21.08;4.35;;;;;;;6.63;100.00;101202.31;5081354;28;20040;-76
2024/01/24 04:18:43;;;;;;;15.38;3.40;;;;;;;6.63;100.00;101206.81;5098098;28;20043;-76
2024/01/24 04:21:08;;;;;;;23.83;4.97;;;;;;;6.57;100.00;101216.25;5081368;28;20105;-76
2024/01/24 04:23:34;;;;;;;14.35;2.65;;;;;;;6.54;100.00;101219.19;5081165;28;20024;-76
2024/01/24 04:26:05;;;;;;;15.00;3.38;;;;;;;6.65;100.00;101213.72;5081239;28;20045;-76
2024/01/24 04:28:31;;;;;;;22.25;3.95;;;;;;;6.71;100.00;101215.00;5081184;28;20027;-76
2024/01/24 04:30:57;;;;;;;11.52;3.17;;;;;;;6.61;100.00;101239.03;5097562;28;20364;-76
2024/01/24 04:33:22;;;;;;;24.42;4.47;;;;;;;6.55;100.00;101232.41;5081086;28;20126;-76
2024/01/24 04:35:48;;;;;;;14.65;2.90;;;;;;;6.52;100.00;101240.69;5080990;28;20371;-76
2024/01/24 04:38:14;;;;;;;17.30;3.35;;;;;;;6.59;100.00;101268.56;5080949;28;20034;-76
2024/01/24 04:40:40;;;;;;;5.10;2.17;;;;;;;6.62;100.00;101259.44;5097519;28;20413;-77
2024/01/24 04:43:07;;;;;;;9.65;2.95;;;;;;;6.77;100.00;101243.81;5080911;28;20037;-76
2024/01/24 04:45:33;;;;;;;9.93;2.85;;;;;;;6.79;100.00;101279.28;5097995;28;20053;-76
2024/01/24 04:47:59;;;;;;;10.35;2.17;;;;;;;6.78;100.00;101272.25;5080744;28;20023;-76
2024/01/24 04:50:25;;;;;;;11.93;2.90;;;;;;;6.76;100.00;101266.19;5096934;28;20031;-76
2024/01/24 04:52:50;;;;;;;12.02;3.10;;;;;;;6.64;100.00;101264.63;5080578;28;20027;-76
2024/01/24 04:55:16;;;;;;;20.27;3.33;;;;;;;6.54;100.00;101270.81;5080845;28;20028;-76
2024/01/24 04:57:42;;;;;;;20.60;3.67;;;;;;;6.53;100.00;101295.81;5080532;28;20473;-76
2024/01/24 05:00:09;;;;;;;14.95;3.08;;;;;;;6.49;100.00;101320.28;5080344;28;20078;-77
2024/01/24 05:02:36;;;;;;;26.25;4.75;;;;;;;6.45;100.00;101329.53;5097111;28;20122;-75
2024/01/24 05:05:03;;;;;;;21.63;4.38;;;;;;;6.30;100.00;101318.38;5080070;28;20431;-76
2024/01/24 05:07:28;;;;;;;13.52;3.42;;;;;;;6.26;100.00;101319.63;5096962;28;20046;-76
2024/01/24 05:09:54;;;;;;;10.32;3.25;;;;;;;6.36;100.00;101331.19;5080015;28;20075;-76
2024/01/24 05:12:19;;;;;;;23.50;3.45;;;;;;;6.43;100.00;101335.03;5080162;28;20047;-76
2024/01/24 05:14:45;;;;;;;16.95;4.10;;;;;;;6.49;100.00;101334.47;5096543;28;20479;-76
2024/01/24 05:17:11;;;;;;;25.17;5.10;;;;;;;6.66;100.00;101334.81;5113813;28;20456;-76
2024/01/24 05:19:36;;;;;;;22.15;4.13;;;;;;;6.80;100.00;101351.31;5096699;28;20479;-76
2024/01/24 05:22:02;;;;;;;21.67;3.70;;;;;;;6.90;100.00;101337.13;5079990;28;20134;-76
2024/01/24 05:24:28;;;;;;;32.67;5.45;;;;;;;6.97;100.00;101333.75;5079651;28;20031;-76
2024/01/24 05:26:54;;;;;;;27.08;5.03;;;;;;;7.01;100.00;101332.50;5079848;28;20043;-76
2024/01/24 05:29:19;;;;;;;15.80;3.35;;;;;;;7.10;100.00;101338.00;5080139;28;20428;-76
2024/01/24 05:31:45;;;;;;;18.15;3.40;;;;;;;7.24;100.00;101354.47;5079859;28;20497;-75
2024/01/24 05:34:12;;;;;;;20.80;3.58;;;;;;;7.20;100.00;101353.09;5079918;28;20027;-76
2024/01/24 05:36:42;;;;;;;20.17;3.70;;;;;;;7.07;100.00;101346.31;5080913;28;20058;-76
2024/01/24 05:39:07;;;;;;;16.60;2.22;;;;;;;6.91;100.00;101333.47;5080133;28;20031;-76
2024/01/24 05:41:34;;;;;;;21.50;4.53;;;;;;;6.76;100.00;101360.59;5079852;28;20035;-76
2024/01/24 05:44:00;;;;;;;14.85;3.67;;;;;;;6.66;100.00;101369.56;5079689;28;20188;-76
2024/01/24 05:46:25;;;;;;;17.83;2.58;;;;;;;6.70;100.00;101354.94;5080579;28;20473;-76
2024/01/24 05:48:51;;;;;;;22.15;4.78;;;;;;;6.79;100.00;101328.22;5079722;28;20467;-76
2024/01/24 05:51:17;;;;;;;21.70;4.68;;;;;;;6.89;100.00;101325.59;5079604;28;20364;-76
2024/01/24 05:53:43;;;;;;;9.20;2.60;;;;;;;6.98;100.00;101354.16;5096407;28;20054;-76
2024/01/24 05:56:09;;;;;;;11.48;3.30;;;;;;;6.99;100.00;101390.63;5079641;28;20519;-76
2024/01/24 05:58:37;;;;;;;10.02;3.67;;;;;;;6.99;100.00;101393.28;5079405;28;20119;-76
2024/01/24 06:01:03;;;;;;;18.45;4.55;;;;;;;6.96;100.00;101377.53;5113268;28;20047;-76
2024/01/24 06:03:29;;;;;;;19.98;3.65;;;;;;;6.92;100.00;101388.63;5113104;28;20522;-76
2024/01/24 06:05:55;;;;;;;25.90;4.60;;;;;;;6.84;100.00;101397.31;5079469;28;20063;-76
2024/01/24 06:08:20;;;;;;;13.10;2.63;;;;;;;6.79;100.00;101416.44;5079465;28;20467;-76
2024/01/24 06:10:46;;;;;;;16.75;3.70;;;;;;;6.80;100.00;101419.94;5079382;28;20031;-76
2024/01/24 06:13:12;;;;;;;26.15;4.63;;;;;;;6.83;100.00;101403.66;5079366;28;20081;-76
2024/01/24 06:15:37;;;;;;;20.80;3.72;;;;;;;6.79;100.00;101405.75;5095717;28;20035;-76
2024/01/24 06:18:03;;;;;;;20.80;3.30;;;;;;;6.79;100.00;101413.75;5079317;28;20127;-76
2024/01/24 06:20:29;;;;;;;24.02;4.20;;;;;;;6.81;100.00;101424.34;5079386;28;20067;-76
2024/01/24 06:22:54;;;;;;;12.30;3.55;;;;;;;6.81;100.00;101416.31;5079302;28;20035;-76
2024/01/24 06:25:21;;;;;;;24.40;4.28;;;;;;;6.80;100.00;101444.00;5079241;28;20124;-76
2024/01/24 06:27:47;;;;;;;16.85;3.58;;;;;;;6.76;100.00;101456.81;5079291;28;20169;-76
2024/01/24 06:30:13;;;;;;;17.55;4.00;;;;;;;6.75;100.00;101483.69;5079151;28;20484;-76
2024/01/24 06:32:38;;;;;;;18.02;4.15;;;;;;;6.78;100.00;101481.56;5095463;28;20051;-76
2024/01/24 06:35:04;;;;;;;15.02;2.83;;;;;;;6.91;100.00;101459.97;5078862;28;20395;-76
2024/01/24 06:37:30;;;;;;;21.40;4.03;;;;;;;7.07;100.00;101466.66;5078955;28;20032;-76
2024/01/24 06:39:55;;;;;;;26.30;4.95;;;;;;;7.18;100.00;101477.22;5078780;28;20069;-76
2024/01/24 06:42:21;;;;;;;17.83;3.95;;;;;;;7.14;100.00;101460.59;5078827;28;20032;-76
2024/01/24 06:44:47;;;;;;;22.98;3.78;;;;;;;7.00;100.00;101469.00;5078859;28;20049;-76
2024/01/24 06:47:12;;;;;;;22.25;4.32;;;;;;;6.95;100.00;101514.84;5078911;28;20035;-76
2024/01/24 06:49:38;;;;;;;14.90;3.55;;;;;;;6.89;100.00;101514.56;5078884;28;20020;-76
2024/01/24 06:52:04;;;;;;;16.80;3.67;;;;;;;6.87;100.00;101517.34;5078848;28;20413;-76
2024/01/24 06:54:35;;;;;;;21.63;3.75;;;;;;;6.91;100.00;101510.75;5078836;28;20378;-75
2024/01/24 06:57:03;;;;;;;23.95;4.88;;;;;;;6.95;100.00;101525.53;5079279;28;20035;-76
2024/01/24 06:59:32;;;;;;;27.65;4.72;;;;;;;6.93;100.00;101540.91;5112284;28;20039;-77
2024/01/24 07:01:59;;;;;;;22.15;5.90;;;;;;;6.91;100.00;101540.19;5078732;28;20123;-76
2024/01/24 07:04:25;;;;;;;27.50;4.85;;;;;;;6.86;100.00;101531.69;5078852;28;20032;-77
2024/01/24 07:06:51;;;;;;;24.80;4.50;;;;;;;6.81;100.00;101533.94;5094991;28;20031;-76
2024/01/24 07:09:17;;;;;;;27.20;4.28;;;;;;;6.76;100.00;101530.81;5078751;28;20065;-77
2024/01/24 07:11:43;;;;;;;23.50;4.97;;;;;;;6.67;100.00;101524.44;5078818;28;20463;-76
2024/01/24 07:14:08;;;;;;;28.45;4.75;;;;;;;6.58;100.00;101522.53;5078360;28;20035;-76
2024/01/24 07:16:35;;;;;;;23.50;5.32;;;;;;;6.55;100.00;101517.44;5078502;28;20126;-76
2024/01/24 07:19:03;;;;;;;23.45;4.82;;;;;;;6.49;100.00;101518.81;5078365;28;20100;-76
2024/01/24 07:21:30;;;;;;;26.25;4.95;;;;;;;6.39;100.00;101521.41;5078975;28;20027;-76
2024/01/24 07:23:55;;;;;;;24.92;4.35;;;;;;;6.38;100.00;101521.56;5078278;28;20035;-76
2024/01/24 07:26:21;;;;;;;29.70;4.97;;;;;;;6.30;100.00;101506.19;5078699;28;20039;-76
2024/01/24 07:28:48;;;;;;;21.65;5.20;;;;;;;6.25;100.00;101507.56;5080743;28;20471;-78
2024/01/24 07:31:14;;;;;;;21.40;3.90;;;;;;;6.13;100.00;101512.94;5098925;28;20126;-76
2024/01/24 07:33:41;;;;;;;22.23;4.18;;;;;;;6.04;100.00;101519.06;5082070;28;20028;-76
2024/01/24 07:36:06;;;;;;;16.55;3.17;;;;;;;6.02;100.00;101526.34;5081935;28;20031;-76
2024/01/24 07:38:32;;;;;;;18.02;3.90;;;;;;;6.02;100.00;101531.66;5098482;28;20649;-76
2024/01/24 07:40:58;;;;;;;15.80;3.60;;;;;;;6.04;100.00;101534.22;5081891;28;20035;-76
2024/01/24 07:43:23;;;;;;;27.23;4.05;;;;;;;6.04;100.00;101539.56;5081917;28;20039;-76
2024/01/24 07:45:50;;;;;;;21.40;4.68;;;;;;;6.05;100.00;101536.75;5081768;28;20035;-76
2024/01/24 07:48:16;;;;;;;19.73;3.45;;;;;;;6.11;100.00;101540.72;5082000;28;20028;-76
2024/01/24 07:50:42;;;;;;;18.15;3.83;;;;;;;6.15;100.00;101551.03;5081840;28;20045;-76
2024/01/24 07:53:09;;;;;;;19.23;3.80;;;;;;;6.14;100.00;101556.53;5080832;28;20100;-76
2024/01/24 07:55:34;;;;;;;17.85;4.32;;;;;;;6.10;100.00;101566.59;5114527;28;20027;-76
2024/01/24 07:58:00;;;;;;;25.77;4.47;;;;;;;6.07;100.00;101571.34;5064960;28;20134;-75
2024/01/24 08:00:26;;;;;;;15.55;3.00;;;;;;;6.08;100.00;101592.56;5081441;28;20031;-76
2024/01/24 08:02:51;;;;;;;23.30;4.22;;;;;;;6.08;100.00;101595.22;5081444;28;20490;-76
2024/01/24 08:05:18;;;;;;;19.23;4.25;;;;;;;6.06;100.00;101597.22;5081564;28;20097;-76
2024/01/24 08:07:44;;;;;;;14.48;3.38;;;;;;;6.15;100.00;101599.09;5081573;28;20073;-76
2024/01/24 08:10:13;;;;;;;24.15;4.45;;;;;;;6.22;100.00;101611.94;5098189;28;20027;-76
2024/01/24 08:12:55;;;;;;;21.35;4.53;;;;;;;6.25;100.00;101617.06;5099570;28;20035;-76
2024/01/24 08:15:21;;;;;;;15.30;3.60;;;;;;;6.24;100.00;101620.69;5081075;28;20091;-76
2024/01/24 08:17:49;;;;;;;26.27;3.75;;;;;;;6.32;100.00;101627.06;5081146;28;20184;-76
2024/01/24 08:20:17;;;;;;;25.05;3.83;;;;;;;6.31;100.00;101629.88;5098116;28;20043;-76
2024/01/24 08:22:52;;;;;;;18.48;3.88;;;;;;;6.29;100.00;101631.84;5081636;28;20048;-76
2024/01/24 08:25:18;;;;;;;17.35;3.97;;;;;;;6.33;100.00;101627.94;5098610;28;20387;-76
2024/01/24 08:27:44;;;;;;;17.83;4.05;;;;;;;6.38;100.00;101623.91;5081200;28;20039;-76
2024/01/24 08:30:09;;;;;;;22.65;3.85;;;;;;;6.48;100.00;101634.66;5080857;28;20368;-76
2024/01/24 08:32:40;;;;;;;20.40;3.45;;;;;;;6.52;100.00;101630.78;5081248;28;20177;-76
2024/01/24 08:35:06;;;;;;;22.75;3.85;;;;;;;6.58;100.00;101637.44;5081969;28;20531;-76
2024/01/24 08:37:31;;;;;;;19.55;4.07;;;;;;;6.60;100.00;101648.84;5081028;28;20034;-76
2024/01/24 08:39:57;;;;;;;15.95;3.85;;;;;;;6.61;100.00;101645.19;5081037;28;20111;-77
2024/01/24 08:42:23;;;;;;;21.80;4.28;;;;;;;6.59;100.00;101653.34;5080913;28;20494;-76
2024/01/24 08:44:48;;;;;;;15.18;4.43;;;;;;;6.63;100.00;101653.09;5080946;28;20031;-76
2024/01/24 08:47:14;;;;;;;14.30;3.95;;;;;;;6.70;100.00;101667.63;5081268;28;20031;-76
2024/01/24 08:49:40;;;;;;;21.90;4.25;;;;;;;6.69;100.00;101674.78;5080965;28;20467;-76
2024/01/24 08:52:05;;;;;;;26.42;4.63;;;;;;;6.72;100.00;101677.22;5080725;28;20433;-76
2024/01/24 08:54:31;;;;;;;17.33;4.03;;;;;;;6.75;100.00;101678.78;5096988;28;20030;-76
2024/01/24 08:56:59;;;;;;;21.63;3.65;;;;;;;6.76;100.00;101675.13;5080645;28;20035;-76
2024/01/24 08:59:25;;;;;;;16.98;4.65;;;;;;;6.76;100.00;101670.63;5080187;28;20028;-76
2024/01/24 09:01:55;;;;;;;25.45;4.70;;;;;;;6.77;100.00;101667.00;5080517;28;20027;-76
2024/01/24 09:04:21;;;;;;;19.83;6.45;;;;;;;6.79;100.00;101682.88;5081005;28;20070;-76
2024/01/24 09:06:46;;;;;;;25.70;5.25;;;;;;;6.76;100.00;101685.81;5097272;28;20036;-76
2024/01/24 09:09:15;;;;;;;17.77;5.18;;;;;;;6.70;100.00;101684.53;5080650;28;20036;-76
2024/01/24 09:11:41;;;;;;;21.05;4.30;;;;;;;6.66;100.00;101679.56;5080589;28;20126;-76
2024/01/24 09:14:06;;;;;;;18.27;4.63;;;;;;;6.65;100.00;101683.22;5080834;28;20066;-76
2024/01/24 09:16:32;;;;;;;17.73;4.32;;;;;;;6.60;100.00;101681.75;5080265;28;20553;-76
2024/01/24 09:18:58;;;;;;;17.00;4.65;;;;;;;6.58;100.00;101672.16;5080277;28;20036;-76
2024/01/24 09:21:23;;;;;;;16.48;4.10;;;;;;;6.60;100.00;101676.41;5096630;28;20110;-76
2024/01/24 09:23:50;;;;;;;20.20;5.20;;;;;;;6.64;100.00;101679.66;5080134;28;20368;-76
2024/01/24 09:26:16;;;;;;;23.50;4.85;;;;;;;6.70;100.00;101684.53;5080080;28;20038;-76
2024/01/24 09:28:42;;;;;;;18.65;3.47;;;;;;;6.73;100.00;101688.75;5079561;28;20031;-76
2024/01/24 09:31:08;;;;;;;27.92;4.47;;;;;;;6.78;100.00;101691.91;5080467;28;20363;-76
2024/01/24 09:33:33;;;;;;;21.52;4.95;;;;;;;6.83;100.00;101695.03;5080340;28;20043;-76
2024/01/24 09:35:59;;;;;;;22.25;5.07;;;;;;;6.87;100.00;101698.28;5079189;28;20387;-76
2024/01/24 09:38:25;;;;;;;31.75;5.78;;;;;;;6.87;100.00;101704.47;5096532;28;20027;-76
2024/01/24 09:40:52;;;;;;;16.52;4.28;;;;;;;6.92;100.00;101714.78;5079296;28;20027;-76
2024/01/24 09:43:21;;;;;;;26.83;5.05;;;;;;;6.91;100.00;101710.44;5096242;28;20031;-77
2024/01/24 09:45:49;;;;;;;31.90;5.20;;;;;;;6.92;100.00;101731.69;5079522;28;20093;-76
2024/01/24 09:48:16;;;;;;;21.90;4.53;;;;;;;6.94;100.00;101737.75;5096298;28;20038;-77
2024/01/24 09:50:44;;;;;;;26.05;5.82;;;;;;;6.97;100.00;101739.31;5095573;28;20050;-76
2024/01/24 09:53:14;;;;;;;24.95;5.20;;;;;;;6.97;100.00;101729.47;5094908;28;20027;-77
2024/01/24 09:55:41;;;;;;;25.10;4.45;;;;;;;7.02;100.00;101742.47;5061091;28;20059;-77
2024/01/24 09:58:06;;;;;;;20.55;5.18;;;;;;;7.07;100.00;101747.44;5077258;28;20041;-77
2024/01/24 10:00:32;;;;;;;21.73;5.78;;;;;;;7.09;100.00;101754.31;5076959;28;20118;-77
2024/01/24 10:02:58;;;;;;;22.90;5.28;;;;;;;7.14;100.00;101754.78;5077286;28;20039;-77
2024/01/24 10:05:25;;;;;;;23.35;5.93;;;;;;;7.18;100.00;101776.78;5076952;28;20112;-77
2024/01/24 10:07:51;;;;;;;26.42;5.55;;;;;;;7.21;100.00;101777.38;5111705;28;20532;-77
2024/01/24 10:10:16;;;;;;;31.48;5.50;;;;;;;7.29;100.00;101787.44;5079323;28;20019;-77
2024/01/24 10:12:42;;;;;;;29.92;6.93;;;;;;;7.36;100.00;101788.63;5079183;28;20537;-77
2024/01/24 10:15:10;;;;;;;25.42;6.38;;;;;;;7.44;100.00;101779.94;5079357;28;20032;-77
2024/01/24 10:17:35;;;;;;;21.83;6.50;;;;;;;7.52;100.00;101782.81;5078926;28;20082;-76
2024/01/24 10:20:06;;;;;;;21.60;5.45;;;;;;;7.60;100.00;101788.38;5096341;28;20062;-77
2024/01/24 10:22:33;;;;;;;30.00;7.93;;;;;;;7.67;100.00;101788.66;5080236;28;20418;-77
2024/01/24 10:24:59;;;;;;;44.05;15.00;;;;;;;7.67;100.00;101794.91;5113573;28;20040;-77
2024/01/24 10:27:26;;;;;;;36.88;12.43;;;;;;;7.61;100.00;101795.41;5080327;28;20127;-77
2024/01/24 10:29:52;;;;;;;26.85;7.55;;;;;;;7.53;100.00;101789.84;5079220;28;20043;-77
2024/01/24 10:32:17;;;;;;;49.20;18.42;;;;;;;7.48;100.00;101779.53;5095573;28;20020;-77
2024/01/24 10:34:43;;;;;;;38.83;10.68;;;;;;;7.49;100.00;101772.38;5095717;28;20035;-77
2024/01/24 10:37:09;;;;;;;44.78;15.00;;;;;;;7.53;100.00;101765.78;5079273;28;20040;-77
2024/01/24 10:39:36;;;;;;;39.00;11.80;;;;;;;7.64;100.00;101760.34;5078981;28;20118;-77
2024/01/24 10:42:06;;;;;;;50.55;12.68;;;;;;;7.85;100.00;101754.94;5112660;28;20024;-77
2024/01/24 10:44:35;;;;;;;55.30;14.48;;;;;;;8.02;100.00;101758.84;5112102;28;20073;-77
2024/01/24 10:47:02;;;;;;;82.43;20.02;;;;;;;8.20;100.00;101748.31;5079009;28;20023;-77
2024/01/24 10:49:29;;;;;;;36.97;8.68;;;;;;;8.24;100.00;101765.84;5095374;28;20479;-77
2024/01/24 10:51:56;;;;;;;17.20;4.97;;;;;;;8.10;100.00;101777.78;5078941;28;20036;-77
2024/01/24 10:54:21;;;;;;;23.17;6.28;;;;;;;8.06;100.00;101775.50;5112540;28;20034;-77
2024/01/24 10:56:50;;;;;;;17.70;5.20;;;;;;;8.13;100.00;101777.50;5078927;28;20027;-77
2024/01/24 10:59:16;;;;;;;18.05;5.25;;;;;;;8.17;100.00;101770.03;5095792;28;20047;-77
2024/01/24 11:01:42;;;;;;;20.67;4.43;;;;;;;8.21;100.00;101773.31;5079752;28;20085;-77
2024/01/24 11:04:09;;;;;;;18.33;4.32;;;;;;;8.23;100.00;101780.22;5082791;28;20039;-77
2024/01/24 11:06:39;;;;;;;18.63;4.90;;;;;;;8.22;100.00;101777.66;5082714;28;20032;-77
2024/01/24 11:09:34;;;;;;;19.42;4.03;;;;;;;8.25;100.00;101788.97;5099460;28;20062;-77
2024/01/24 11:12:00;;;;;;;14.05;3.47;;;;;;;8.25;100.00;101790.78;5085586;28;20100;-77